Airfield :
LOGIN :

Register | Disclaimer

   EN    FR    IT 

 










Legend :    VFR   Marginal VFR   IFR   Intensive IFR   Very Intensive IFR
Visi :
Ceiling :
>= 8 km
>= 3000ft
5 to 8 km
1000 to 3000 ft
1500m to 5 km
500 to 1000 ft
800 to 1500m
200 to 500 ft
< 800m
< 200 ft
Symbols :   Thunderstorms  Fog  Heavy snow  Heavy precipitations  Wind > 20 kt
SIGMETs :     Misc.  Thunderstorms  Icing  Turbulence  Mountain Waves  Volcanic Ashes






- Airport Elevation : 856 ft
- IATA code : VGO


LEVX - Vigo Peinador

CURRENT METAR :
  • 270630Z 21014G24KT 6000 VCFG BKN012 BKN019 13/12 Q1016 RERA NOSIG

EXPIRED METARs :
  • 270600Z 21014KT 3000 BCFG RA SCT003 BKN010 BKN025 12/12 Q1016 NOSIG
  • 270530Z 20014KT 3000 BCFG RA BKN003 BKN013 11/11 Q1016 NOSIG
  • 270500Z 19009KT 150V220 0800 R19/P2000 R01/1300D BCFG BKN003 11/11 Q1016 RERA NOSIG
  • 270430Z 19011KT 150V230 0600 R19/1900D R01/0800N FG RA VV002 11/11 Q1017 NOSIG
  • 270400Z 20011KT 160V220 0600 R19/1800D R01/0600N FG RA VV001 11/11 Q1017 NOSIG

TAF TAF LEVX
Valid from the 27 at 06:00 until the 28 at 06:00 UTC


270500Z 2706/2806 21012KT 6000 SCT010 BKN018 TX12/2714Z TN10/2711Z
TEMPO 2706/2806 22016G28KT 3000 -RA BR BKN010
TEMPO 2706/2710 1500 RA BKN005
TEMPO 2706/2708 27010KT 0350 FG VV001
TEMPO 2718/2724 27015G25KT 1500 RA SHRA BKN005 SCT020TCU



MET'MAP, your aeronautical weather chart ! - Copyright ORBIFLY December 2007 - Disclaimer

ORBIFLY MET'MAP TEAM :

Programming & Development : Alexandra Zaïnal
Concept & original design : Baudouin d'Aumeries
Assistance for programming : Marc-Olivier Méhu
Technical & hardware support : Manuel Goepfert

Contact : metmap@orbifly.com




SOURCES & CREDITS :

   NOAA